Terminal Aerodrome Forecast
Issued by NWS Corpus Christi, TX

Home | Current Version | Previous Version | Text Only | Print | Product List | Glossary On
Versions: 1 2 3 4 5 6 7 8 9 10 11 12 13 14 15 16
000
FTUS44 KCRP 171700
TAFCRP
TAF
KCRP 171724Z 1718/1818 14014KT P6SM SCT015 OVC035
      TEMPO 1718/1720 SCT009 BKN015 OVC025
     FM180700 15006KT 3SM BR OVC015
      TEMPO 1809/1813 1SM BR BKN010
     FM181500 18008KT P6SM VCSH FEW009 BKN025=

USA.gov is the U.S. government's official web portal to all federal, state and local government web resources and services.